createdAt,value
2022-10-14T00:01:05.748Z,8.10
2022-10-14T00:03:34.709Z,7.78
2022-10-14T00:06:13.856Z,7.43
2022-10-14T00:08:41.915Z,10.32
2022-10-14T00:11:16.851Z,6.22
2022-10-14T00:13:44.940Z,7.40
2022-10-14T00:16:20.262Z,5.07
2022-10-14T00:18:48.382Z,7.23
2022-10-14T00:21:16.830Z,6.32
2022-10-14T00:23:45.301Z,11.60
2022-10-14T00:26:25.390Z,7.28
2022-10-14T00:28:53.643Z,8.90
2022-10-14T00:31:22.301Z,12.25
2022-10-14T00:33:49.954Z,6.32
2022-10-14T00:36:22.288Z,7.43
2022-10-14T00:38:50.651Z,8.18
2022-10-14T00:41:30.039Z,5.53
2022-10-14T00:44:04.995Z,7.62
2022-10-14T00:46:38.314Z,5.70
2022-10-14T00:49:10.657Z,9.10
2022-10-14T00:51:39.917Z,10.65
2022-10-14T00:54:08.290Z,6.35
2022-10-14T00:56:36.589Z,5.60
2022-10-14T00:59:06.247Z,7.95
2022-10-14T01:01:34.093Z,6.22
2022-10-14T01:04:01.539Z,6.53
2022-10-14T01:06:38.550Z,12.45
2022-10-14T01:09:27.701Z,7.47
2022-10-14T01:12:29.095Z,5.75
2022-10-14T01:15:06.544Z,11.38
2022-10-14T01:18:02.316Z,6.15
2022-10-14T01:20:37.486Z,6.43
2022-10-14T01:23:43.662Z,7.65
2022-10-14T01:26:29.750Z,10.50
2022-10-14T01:29:16.104Z,11.70
2022-10-14T01:32:22.096Z,9.00
2022-10-14T01:34:55.998Z,17.95
2022-10-14T01:37:26.750Z,8.68
2022-10-14T01:40:05.465Z,7.65
2022-10-14T01:42:35.355Z,3.87
2022-10-14T01:45:22.331Z,8.93
2022-10-14T01:47:51.396Z,10.35
2022-10-14T01:50:20.931Z,8.15
2022-10-14T01:53:04.830Z,6.65
2022-10-14T01:58:07.870Z,9.65
2022-10-14T02:00:35.668Z,6.35
2022-10-14T02:03:03.437Z,8.68
2022-10-14T02:05:33.619Z,9.95
2022-10-14T02:08:18.283Z,9.88
2022-10-14T02:11:02.707Z,3.92
2022-10-14T02:14:04.500Z,6.93
2022-10-14T02:16:38.899Z,11.30
2022-10-14T02:19:24.768Z,8.25
2022-10-14T02:21:58.204Z,9.15
2022-10-14T02:24:44.966Z,7.95
2022-10-14T02:27:15.232Z,8.00
2022-10-14T02:29:44.380Z,10.15
2022-10-14T02:32:14.517Z,10.02
2022-10-14T02:34:47.078Z,8.10
2022-10-14T02:37:15.441Z,6.10
2022-10-14T02:39:47.568Z,6.30
2022-10-14T02:42:15.021Z,8.00
2022-10-14T02:44:56.898Z,9.23
2022-10-14T02:47:24.847Z,5.68
2022-10-14T02:49:53.057Z,9.40
2022-10-14T02:52:20.845Z,6.53
2022-10-14T02:54:48.500Z,6.45
2022-10-14T02:57:16.774Z,5.43
2022-10-14T02:59:44.251Z,8.30
2022-10-14T03:02:11.681Z,8.20
2022-10-14T03:04:39.847Z,6.68
2022-10-14T03:07:07.960Z,11.00
2022-10-14T03:09:35.446Z,11.60
2022-10-14T03:12:04.668Z,7.12
2022-10-14T03:14:32.184Z,8.88
2022-10-14T03:16:59.679Z,8.88
2022-10-14T03:19:29.289Z,11.57
2022-10-14T03:21:57.181Z,10.05
2022-10-14T03:24:26.121Z,5.70
2022-10-14T03:26:57.449Z,6.20
2022-10-14T03:29:25.194Z,7.25
2022-10-14T03:31:53.285Z,7.40
2022-10-14T03:34:21.286Z,6.50
2022-10-14T03:36:50.755Z,5.65
2022-10-14T03:39:18.393Z,10.50
2022-10-14T03:41:47.138Z,7.32
2022-10-14T03:44:15.348Z,7.12
2022-10-14T03:46:43.968Z,9.13
2022-10-14T03:49:12.636Z,4.35
2022-10-14T03:51:40.242Z,5.85
2022-10-14T03:54:07.964Z,5.37
2022-10-14T03:56:36.026Z,7.43
2022-10-14T03:59:03.614Z,5.87
2022-10-14T04:01:32.468Z,5.43
2022-10-14T04:04:00.540Z,10.43
2022-10-14T04:06:28.554Z,9.48
2022-10-14T04:08:56.474Z,7.78
2022-10-14T04:11:24.721Z,5.75
2022-10-14T04:13:58.211Z,6.03
2022-10-14T04:16:27.226Z,6.18
2022-10-14T04:18:55.552Z,4.93
2022-10-14T04:21:23.115Z,7.30
2022-10-14T04:23:51.112Z,4.80
2022-10-14T04:26:22.119Z,8.18
2022-10-14T04:28:50.540Z,8.88
2022-10-14T04:31:22.660Z,8.77
2022-10-14T04:33:51.604Z,10.40
2022-10-14T04:36:19.510Z,4.78
2022-10-14T04:38:47.316Z,6.05
2022-10-14T04:41:14.777Z,8.48
2022-10-14T04:43:44.524Z,8.40
2022-10-14T04:46:13.266Z,7.05
2022-10-14T04:48:40.720Z,5.22
2022-10-14T04:51:08.556Z,6.25
2022-10-14T04:53:37.537Z,5.22
2022-10-14T04:56:06.157Z,6.50
2022-10-14T04:58:37.194Z,7.28
2022-10-14T05:01:05.000Z,5.57
2022-10-14T05:03:32.724Z,17.48
2022-10-14T05:06:00.655Z,5.93
2022-10-14T05:08:28.328Z,3.80
2022-10-14T05:10:56.008Z,13.00
2022-10-14T05:13:27.053Z,7.60
2022-10-14T05:15:55.161Z,9.68
2022-10-14T05:18:22.766Z,12.25
2022-10-14T05:20:50.725Z,6.18
2022-10-14T05:23:18.798Z,10.45
2022-10-14T05:25:46.975Z,8.18
2022-10-14T05:28:14.574Z,19.73
2022-10-14T05:30:42.909Z,6.97
2022-10-14T05:33:11.853Z,10.50
2022-10-14T05:35:58.104Z,6.57
2022-10-14T05:38:27.260Z,11.60
2022-10-14T05:40:56.125Z,5.43
2022-10-14T05:43:32.158Z,10.73
2022-10-14T05:46:00.811Z,6.18
2022-10-14T05:48:28.624Z,8.10
2022-10-14T05:50:56.558Z,7.22
2022-10-14T05:53:25.721Z,8.80
2022-10-14T05:56:01.325Z,8.98
2022-10-14T05:58:29.025Z,5.07
2022-10-14T06:01:01.444Z,5.95
2022-10-14T06:03:29.372Z,8.52
2022-10-14T06:05:57.037Z,18.10
2022-10-14T06:08:24.936Z,4.20
2022-10-14T06:10:52.973Z,6.80
2022-10-14T06:13:21.457Z,6.12
2022-10-14T06:15:49.033Z,8.95
2022-10-14T06:18:17.228Z,5.97
2022-10-14T06:20:44.718Z,13.05
2022-10-14T06:23:12.082Z,6.50
2022-10-14T06:25:40.260Z,8.57
2022-10-14T06:28:07.665Z,9.52
2022-10-14T06:30:35.115Z,13.40
2022-10-14T06:33:02.792Z,9.65
2022-10-14T06:35:30.200Z,10.43
2022-10-14T06:37:57.807Z,9.52
2022-10-14T06:40:25.613Z,12.85
2022-10-14T06:42:53.670Z,18.48
2022-10-14T06:45:21.212Z,9.95
2022-10-14T06:47:48.930Z,8.35
2022-10-14T06:50:16.332Z,11.18
2022-10-14T06:52:47.425Z,17.67
2022-10-14T06:55:15.852Z,9.80
2022-10-14T06:57:43.806Z,11.43
2022-10-14T07:00:11.786Z,15.20
2022-10-14T07:02:39.581Z,17.33
2022-10-14T07:05:07.257Z,12.30
2022-10-14T07:07:34.680Z,9.18
2022-10-14T07:10:02.372Z,26.42
2022-10-14T07:12:30.071Z,16.73
2022-10-14T07:14:57.515Z,9.27
2022-10-14T07:17:25.401Z,14.10
2022-10-14T07:19:52.894Z,11.75
2022-10-14T07:22:20.552Z,16.10
2022-10-14T07:24:48.612Z,15.77
2022-10-14T07:27:20.778Z,15.73
2022-10-14T07:29:48.833Z,14.13
2022-10-14T07:32:16.239Z,12.18
2022-10-14T07:34:43.751Z,14.77
2022-10-14T07:37:11.513Z,14.25
2022-10-14T07:39:38.933Z,18.37
2022-10-14T07:42:06.716Z,13.13
2022-10-14T07:44:34.380Z,26.12
2022-10-14T07:47:03.201Z,13.45
2022-10-14T07:49:30.670Z,15.40
2022-10-14T07:51:58.441Z,11.85
2022-10-14T07:54:26.852Z,14.68
2022-10-14T07:56:54.266Z,16.30
2022-10-14T07:59:22.073Z,15.10
2022-10-14T08:01:50.912Z,14.60
2022-10-14T08:04:19.136Z,12.55
2022-10-14T08:06:50.164Z,9.63
2022-10-14T08:09:19.149Z,15.65
2022-10-14T08:11:47.375Z,12.27
2022-10-14T08:14:15.104Z,8.30
2022-10-14T08:16:42.583Z,11.65
2022-10-14T08:19:14.577Z,23.12
2022-10-14T08:21:43.364Z,11.77
2022-10-14T08:24:11.313Z,10.82
2022-10-14T08:27:01.089Z,14.35
2022-10-14T08:29:28.801Z,22.23
2022-10-14T08:31:56.290Z,13.45
2022-10-14T08:34:24.484Z,15.55
2022-10-14T08:36:52.333Z,11.98
2022-10-14T08:39:20.795Z,11.90
2022-10-14T08:42:00.325Z,21.65
2022-10-14T08:44:35.954Z,9.10
2022-10-14T08:47:05.025Z,11.93
2022-10-14T08:49:38.021Z,9.05
2022-10-14T08:52:14.472Z,18.90
2022-10-14T08:54:45.259Z,10.20
2022-10-14T08:57:15.961Z,13.88
2022-10-14T08:59:44.133Z,17.50
2022-10-14T09:02:20.030Z,13.25
2022-10-14T09:04:47.905Z,13.00
2022-10-14T09:07:20.057Z,14.70
2022-10-14T09:09:51.226Z,15.07
2022-10-14T09:12:25.024Z,15.98
2022-10-14T09:15:09.150Z,19.33
2022-10-14T09:17:41.848Z,19.85
2022-10-14T09:20:18.603Z,19.60
2022-10-14T09:22:57.261Z,19.05
2022-10-14T09:25:25.020Z,20.77
2022-10-14T09:27:52.544Z,42.67
2022-10-14T09:30:20.312Z,19.42
2022-10-14T09:32:55.284Z,18.70
2022-10-14T09:35:40.593Z,18.60
2022-10-14T09:38:08.393Z,18.90
2022-10-14T09:40:39.380Z,17.77
2022-10-14T09:43:09.512Z,17.50
2022-10-14T09:45:56.017Z,17.75
2022-10-14T09:48:29.314Z,20.25
2022-10-14T09:50:58.111Z,22.55
2022-10-14T09:53:31.497Z,15.88
2022-10-14T09:56:01.613Z,19.90
2022-10-14T09:58:53.771Z,16.08
2022-10-14T10:01:26.767Z,23.83
2022-10-14T10:03:55.705Z,19.60
2022-10-14T10:06:27.869Z,12.60
2022-10-14T10:08:55.765Z,18.02
2022-10-14T10:11:28.318Z,21.23
2022-10-14T10:13:56.400Z,14.48
2022-10-14T10:16:32.891Z,17.70
2022-10-14T10:19:23.748Z,17.50
2022-10-14T10:21:51.206Z,23.48
2022-10-14T10:24:25.950Z,18.75
2022-10-14T10:26:56.255Z,18.25
2022-10-14T10:29:34.513Z,15.02
2022-10-14T10:32:42.631Z,17.75
2022-10-14T10:35:29.840Z,19.33
2022-10-14T10:38:00.641Z,14.70
2022-10-14T10:40:37.114Z,17.17
2022-10-14T10:43:33.370Z,17.65
2022-10-14T10:46:14.774Z,15.70
2022-10-14T10:48:45.026Z,16.60
2022-10-14T10:51:36.257Z,15.55
2022-10-14T10:54:25.366Z,16.05
2022-10-14T10:56:56.146Z,16.55
2022-10-14T10:59:26.661Z,18.67
2022-10-14T11:02:03.863Z,20.67
2022-10-14T11:04:46.572Z,19.73
2022-10-14T11:07:47.063Z,13.02
2022-10-14T11:10:43.081Z,19.85
2022-10-14T11:13:41.713Z,22.42
2022-10-14T11:16:18.176Z,18.20
2022-10-14T11:18:50.930Z,17.05
2022-10-14T11:21:22.062Z,18.65
2022-10-14T11:24:13.885Z,19.27
2022-10-14T11:26:57.767Z,17.23
2022-10-14T11:29:54.342Z,22.92
2022-10-14T11:32:43.301Z,16.80
2022-10-14T11:35:18.993Z,19.70
2022-10-14T11:37:53.595Z,17.10
2022-10-14T11:40:39.847Z,20.12
2022-10-14T11:43:22.454Z,24.63
2022-10-14T11:45:59.875Z,27.52
2022-10-14T11:48:33.108Z,19.10
2022-10-14T11:51:11.703Z,22.48
2022-10-14T11:53:58.964Z,13.02
2022-10-14T11:56:58.958Z,15.02
2022-10-14T12:00:17.428Z,23.83
2022-10-14T12:02:54.789Z,20.98
2022-10-14T12:05:47.192Z,25.05
2022-10-14T12:08:17.637Z,19.98
2022-10-14T12:10:48.186Z,19.35
2022-10-14T12:13:19.197Z,18.55
2022-10-14T12:15:50.828Z,16.73
2022-10-14T12:18:22.840Z,22.42
2022-10-14T12:21:14.300Z,27.85
2022-10-14T12:23:57.344Z,23.75
2022-10-14T12:26:24.661Z,22.33
2022-10-14T12:28:54.086Z,21.05
2022-10-14T12:31:23.826Z,22.25
2022-10-14T12:34:17.497Z,25.65
2022-10-14T12:36:47.054Z,20.83
2022-10-14T12:39:17.558Z,27.62
2022-10-14T12:41:54.236Z,22.05
2022-10-14T12:44:23.733Z,19.70
2022-10-14T12:46:53.506Z,20.52
2022-10-14T12:49:30.689Z,29.23
2022-10-14T12:52:04.810Z,23.95
2022-10-14T12:54:33.400Z,18.67
2022-10-14T12:57:03.210Z,24.77
2022-10-14T12:59:36.483Z,21.10
2022-10-14T13:02:17.677Z,26.98
2022-10-14T13:04:53.549Z,27.05
2022-10-14T13:07:47.141Z,25.12
2022-10-14T13:10:45.886Z,19.58
2022-10-14T13:13:39.020Z,20.67
2022-10-14T13:16:10.535Z,25.60
2022-10-14T13:18:44.488Z,19.10
2022-10-14T13:21:36.485Z,22.87
2022-10-14T13:24:26.325Z,25.60
2022-10-14T13:26:53.960Z,19.37
2022-10-14T13:29:48.909Z,20.42
2022-10-14T13:32:43.143Z,28.27
2022-10-14T13:35:29.464Z,21.77
2022-10-14T13:38:00.459Z,21.42
2022-10-14T13:40:40.212Z,27.87
2022-10-14T13:43:15.378Z,19.15
2022-10-14T13:45:47.132Z,23.92
2022-10-14T13:48:30.171Z,21.80
2022-10-14T13:51:31.475Z,27.30
2022-10-14T13:54:30.945Z,17.92
2022-10-14T13:57:42.617Z,27.60
2022-10-14T14:02:51.453Z,18.58
2022-10-14T14:05:25.978Z,21.92
2022-10-14T14:11:14.534Z,21.17
2022-10-14T14:13:53.243Z,19.83
2022-10-14T14:16:26.526Z,21.03
2022-10-14T14:19:07.447Z,15.40
2022-10-14T14:21:36.363Z,22.62
2022-10-14T14:24:10.961Z,17.12
2022-10-14T14:26:38.933Z,29.02
2022-10-14T14:29:14.429Z,26.25
2022-10-14T14:34:32.519Z,20.75
2022-10-14T14:37:11.004Z,19.75
2022-10-14T14:40:18.097Z,17.55
2022-10-14T14:42:47.335Z,25.83
2022-10-14T14:45:20.473Z,28.98
2022-10-14T14:47:52.206Z,25.45
2022-10-14T14:50:30.868Z,24.40
2022-10-14T14:53:03.456Z,24.98
2022-10-14T14:55:46.378Z,21.90
2022-10-14T14:58:21.987Z,29.55
2022-10-14T15:00:51.654Z,24.73
2022-10-14T15:03:19.161Z,19.77
2022-10-14T15:06:01.895Z,19.50
2022-10-14T15:08:32.785Z,28.38
2022-10-14T15:11:00.786Z,26.12
2022-10-14T15:13:39.141Z,21.48
2022-10-14T15:16:07.611Z,21.30
2022-10-14T15:18:37.653Z,22.50
2022-10-14T15:21:06.904Z,18.40
2022-10-14T15:23:49.637Z,22.05
2022-10-14T15:26:33.482Z,19.48
2022-10-14T15:29:05.276Z,27.17
2022-10-14T15:31:33.050Z,28.05
2022-10-14T15:34:01.441Z,26.83
2022-10-14T15:36:31.292Z,23.75
2022-10-14T15:39:00.710Z,23.50
2022-10-14T15:41:29.587Z,23.73
2022-10-14T15:43:57.047Z,18.65
2022-10-14T15:46:43.399Z,23.12
2022-10-14T15:49:18.349Z,30.35
2022-10-14T15:51:45.815Z,37.42
2022-10-14T15:54:14.538Z,36.45
2022-10-14T15:56:41.982Z,34.83
2022-10-14T15:59:10.064Z,34.75
2022-10-14T16:01:39.744Z,29.00
2022-10-14T16:04:14.863Z,29.10
2022-10-14T16:06:42.328Z,33.05
2022-10-14T16:09:10.122Z,28.87
2022-10-14T16:11:37.662Z,26.75
2022-10-14T16:14:06.581Z,27.42
2022-10-14T16:16:37.705Z,27.05
2022-10-14T16:19:05.194Z,26.65
2022-10-14T16:21:33.511Z,26.40
2022-10-14T16:24:02.318Z,23.92
2022-10-14T16:26:30.848Z,26.12
2022-10-14T16:29:00.277Z,18.25
2022-10-14T16:31:28.059Z,16.90
2022-10-14T16:33:55.513Z,34.83
2022-10-14T16:36:24.954Z,15.27
2022-10-14T16:38:52.791Z,19.95
2022-10-14T16:41:20.442Z,23.95
2022-10-14T16:43:48.045Z,18.50
2022-10-14T16:46:16.732Z,21.50
2022-10-14T16:48:45.915Z,16.73
2022-10-14T16:51:13.796Z,31.58
2022-10-14T16:53:41.693Z,17.42
2022-10-14T16:56:36.664Z,25.55
2022-10-14T16:59:04.997Z,20.62
2022-10-14T17:01:32.951Z,16.55
2022-10-14T17:04:01.523Z,17.83
2022-10-14T17:06:29.300Z,18.60
2022-10-14T17:08:56.826Z,33.28
2022-10-14T17:11:27.365Z,16.42
2022-10-14T17:13:57.122Z,21.25
2022-10-14T17:16:28.454Z,16.20
2022-10-14T17:18:56.923Z,25.12
2022-10-14T17:21:28.073Z,19.17
2022-10-14T17:23:58.927Z,18.12
2022-10-14T17:26:26.578Z,21.08
2022-10-14T17:28:54.138Z,22.85
2022-10-14T17:31:22.844Z,20.95
2022-10-14T17:33:50.899Z,21.55
2022-10-14T17:36:23.835Z,19.33
2022-10-14T17:38:52.357Z,19.10
2022-10-14T17:41:19.995Z,13.27
2022-10-14T17:43:49.575Z,21.52
2022-10-14T17:46:20.821Z,19.25
2022-10-14T17:48:50.644Z,15.18
2022-10-14T17:51:20.344Z,19.02
2022-10-14T17:53:48.293Z,23.92
2022-10-14T17:56:15.750Z,16.50
2022-10-14T17:58:43.490Z,27.50
2022-10-14T18:01:15.892Z,24.60
2022-10-14T18:03:44.644Z,19.90
2022-10-14T18:06:13.523Z,15.65
2022-10-14T18:08:42.242Z,23.65
2022-10-14T18:11:11.310Z,20.17
2022-10-14T18:16:12.118Z,16.73
2022-10-14T18:18:43.315Z,20.20
2022-10-14T18:21:10.948Z,20.48
2022-10-14T18:23:39.848Z,21.75
2022-10-14T18:26:13.291Z,20.65
2022-10-14T18:28:46.751Z,28.35
2022-10-14T18:31:17.148Z,24.48
2022-10-14T18:33:45.010Z,15.30
2022-10-14T18:36:14.399Z,15.02
2022-10-14T18:38:42.880Z,14.05
2022-10-14T18:41:12.817Z,13.77
2022-10-14T18:43:41.161Z,15.70
2022-10-14T18:46:14.540Z,15.93
2022-10-14T18:48:44.229Z,17.15
2022-10-14T18:51:15.212Z,13.95
2022-10-14T18:53:45.095Z,17.77
2022-10-14T18:56:15.742Z,19.55
2022-10-14T18:58:54.090Z,23.87
2022-10-14T19:01:22.953Z,13.88
2022-10-14T19:03:53.516Z,21.75
2022-10-14T19:06:21.656Z,15.27
2022-10-14T19:08:50.003Z,17.20
2022-10-14T19:11:24.800Z,18.75
2022-10-14T19:13:54.369Z,15.18
2022-10-14T19:16:24.233Z,13.07
2022-10-14T19:18:56.538Z,12.23
2022-10-14T19:21:29.625Z,18.33
2022-10-14T19:23:58.613Z,15.52
2022-10-14T19:26:28.553Z,19.75
2022-10-14T19:28:56.786Z,20.33
2022-10-14T19:31:26.438Z,14.00
2022-10-14T19:33:54.772Z,17.12
2022-10-14T19:36:23.937Z,14.87
2022-10-14T19:38:59.548Z,15.98
2022-10-14T19:41:32.149Z,18.42
2022-10-14T19:44:00.783Z,14.80
2022-10-14T19:46:29.568Z,13.00
2022-10-14T19:48:59.135Z,15.35
2022-10-14T19:51:27.242Z,21.20
2022-10-14T19:53:55.243Z,16.83
2022-10-14T19:56:23.145Z,23.45
2022-10-14T19:58:53.030Z,23.65
2022-10-14T20:01:23.666Z,22.50
2022-10-14T20:03:52.592Z,26.00
2022-10-14T20:06:21.225Z,16.83
2022-10-14T20:08:48.969Z,18.00
2022-10-14T20:11:19.142Z,27.20
2022-10-14T20:13:47.223Z,19.67
2022-10-14T20:16:14.731Z,28.85
2022-10-14T20:18:42.684Z,20.02
2022-10-14T20:21:14.078Z,24.73
2022-10-14T20:23:42.129Z,19.02
2022-10-14T20:26:16.147Z,14.98
2022-10-14T20:28:44.328Z,18.67
2022-10-14T20:31:16.858Z,17.00
2022-10-14T20:33:44.954Z,22.05
2022-10-14T20:36:14.398Z,24.67
2022-10-14T20:38:42.746Z,17.05
2022-10-14T20:41:22.853Z,18.15
2022-10-14T20:43:50.942Z,22.17
2022-10-14T20:46:19.219Z,15.52
2022-10-14T20:48:46.739Z,17.77
2022-10-14T20:51:16.466Z,23.52
2022-10-14T20:53:44.233Z,18.62
2022-10-14T20:56:12.837Z,18.25
2022-10-14T20:58:40.606Z,16.48
2022-10-14T21:01:11.395Z,17.77
2022-10-14T21:03:39.472Z,18.80
2022-10-14T21:06:10.775Z,15.68
2022-10-14T21:08:38.769Z,18.87
2022-10-14T21:11:13.727Z,19.62
2022-10-14T21:13:45.208Z,25.70
2022-10-14T21:16:33.057Z,14.65
2022-10-14T21:19:06.561Z,16.05
2022-10-14T21:21:37.220Z,14.05
2022-10-14T21:24:05.563Z,14.30
2022-10-14T21:26:33.583Z,13.23
2022-10-14T21:29:02.631Z,15.27
2022-10-14T21:31:31.073Z,11.45
2022-10-14T21:34:05.510Z,13.35
2022-10-14T21:36:38.562Z,14.27
2022-10-14T21:39:11.841Z,15.30
2022-10-14T21:41:40.345Z,19.08
2022-10-14T21:44:08.938Z,17.58
2022-10-14T21:46:36.482Z,14.70
2022-10-14T21:49:04.460Z,17.80
2022-10-14T21:51:32.865Z,28.42
2022-10-14T21:54:00.317Z,22.40
2022-10-14T21:56:28.576Z,17.77
2022-10-14T21:58:56.192Z,22.30
2022-10-14T22:01:27.251Z,22.42
2022-10-14T22:04:03.818Z,19.08
2022-10-14T22:06:33.464Z,15.40
2022-10-14T22:09:02.529Z,12.90
2022-10-14T22:11:33.961Z,15.02
2022-10-14T22:14:03.567Z,10.73
2022-10-14T22:16:31.045Z,13.10
2022-10-14T22:19:00.321Z,16.70
2022-10-14T22:21:29.844Z,10.77
2022-10-14T22:23:58.428Z,10.82
2022-10-14T22:26:27.264Z,15.43
2022-10-14T22:29:00.191Z,10.48
2022-10-14T22:31:28.859Z,11.88
2022-10-14T22:33:56.645Z,12.88
2022-10-14T22:36:25.779Z,12.60
2022-10-14T22:38:54.273Z,15.52
2022-10-14T22:41:23.125Z,13.77
2022-10-14T22:43:52.680Z,16.60
2022-10-14T22:46:22.393Z,39.95
2022-10-14T22:48:50.822Z,15.18
2022-10-14T22:51:20.043Z,16.20
2022-10-14T22:53:47.546Z,16.45
2022-10-14T22:56:18.342Z,15.38
2022-10-14T22:58:45.836Z,13.98
2022-10-14T23:01:16.988Z,15.00
2022-10-14T23:03:44.707Z,11.45
2022-10-14T23:06:13.505Z,13.68
2022-10-14T23:08:41.208Z,17.73
2022-10-14T23:11:14.742Z,21.48
2022-10-14T23:13:42.154Z,12.50
2022-10-14T23:16:15.444Z,12.90
2022-10-14T23:18:43.384Z,17.52
2022-10-14T23:21:20.642Z,16.55
2022-10-14T23:23:49.068Z,14.23
2022-10-14T23:26:21.364Z,10.68
2022-10-14T23:28:50.423Z,10.75
2022-10-14T23:31:20.804Z,18.60
2022-10-14T23:33:49.213Z,12.40
2022-10-14T23:36:16.704Z,15.38
2022-10-14T23:38:44.774Z,18.83
2022-10-14T23:41:13.078Z,13.18
2022-10-14T23:43:41.357Z,9.48
2022-10-14T23:46:09.422Z,11.40
2022-10-14T23:48:37.088Z,13.38
2022-10-14T23:51:04.841Z,28.00
2022-10-14T23:53:33.316Z,13.55
2022-10-14T23:56:01.047Z,14.25
2022-10-14T23:58:29.739Z,8.60
